createdAt,value
2023-06-21T00:00:02.414Z,15.18
2023-06-21T00:02:29.939Z,15.17
2023-06-21T00:04:57.087Z,15.13
2023-06-21T00:07:25.339Z,15.11
2023-06-21T00:09:53.745Z,15.06
2023-06-21T00:12:21.778Z,15.05
2023-06-21T00:14:48.816Z,15.03
2023-06-21T00:17:15.837Z,15.06
2023-06-21T00:19:42.702Z,15.03
2023-06-21T00:22:09.705Z,14.99
2023-06-21T00:24:37.683Z,14.98
2023-06-21T00:27:04.632Z,14.92
2023-06-21T00:29:31.465Z,14.90
2023-06-21T00:31:59.791Z,14.91
2023-06-21T00:34:26.628Z,14.84
2023-06-21T00:36:54.160Z,14.84
2023-06-21T00:39:21.590Z,14.87
2023-06-21T00:41:49.302Z,14.82
2023-06-21T00:44:15.951Z,14.83
2023-06-21T00:46:43.229Z,14.74
2023-06-21T00:49:10.882Z,14.65
2023-06-21T00:51:39.631Z,14.63
2023-06-21T00:54:10.395Z,14.58
2023-06-21T00:56:37.494Z,14.63
2023-06-21T00:59:05.877Z,14.61
2023-06-21T01:01:35.619Z,14.62
2023-06-21T01:04:02.873Z,14.56
2023-06-21T01:06:49.312Z,14.54
2023-06-21T01:09:54.618Z,14.53
2023-06-21T01:12:38.585Z,14.55
2023-06-21T01:15:11.871Z,14.56
2023-06-21T01:17:41.581Z,14.53
2023-06-21T01:20:20.177Z,14.56
2023-06-21T01:22:53.352Z,14.52
2023-06-21T01:26:04.891Z,14.53
2023-06-21T01:28:54.934Z,14.48
2023-06-21T01:31:24.472Z,14.39
2023-06-21T01:33:52.740Z,14.41
2023-06-21T01:36:19.811Z,14.43
2023-06-21T01:38:46.788Z,14.35
2023-06-21T01:41:13.974Z,14.37
2023-06-21T01:43:41.357Z,14.34
2023-06-21T01:46:11.990Z,14.38
2023-06-21T01:48:39.686Z,14.35
2023-06-21T01:51:09.381Z,14.36
2023-06-21T01:53:37.625Z,14.34
2023-06-21T01:56:09.941Z,14.40
2023-06-21T01:58:36.933Z,14.41
2023-06-21T02:01:05.117Z,14.32
2023-06-21T02:03:33.109Z,14.28
2023-06-21T02:06:08.722Z,14.24
2023-06-21T02:08:37.355Z,14.23
2023-06-21T02:11:04.984Z,14.26
2023-06-21T02:13:32.158Z,14.27
2023-06-21T02:15:58.947Z,14.26
2023-06-21T02:18:28.785Z,14.21
2023-06-21T02:20:55.808Z,14.19
2023-06-21T02:23:22.578Z,14.15
2023-06-21T02:25:49.545Z,14.20
2023-06-21T02:28:17.951Z,14.14
2023-06-21T02:30:44.807Z,14.13
2023-06-21T02:33:12.462Z,14.15
2023-06-21T02:35:39.549Z,14.13
2023-06-21T02:38:06.646Z,14.11
2023-06-21T02:40:34.501Z,14.13
2023-06-21T02:43:01.133Z,14.09
2023-06-21T02:45:28.142Z,14.11
2023-06-21T02:47:54.975Z,14.08
2023-06-21T02:50:21.794Z,14.07
2023-06-21T02:52:50.902Z,14.06
2023-06-21T02:55:18.045Z,14.07
2023-06-21T02:57:45.952Z,14.11
2023-06-21T03:00:21.059Z,14.11
2023-06-21T03:02:47.958Z,14.01
2023-06-21T03:05:15.187Z,14.03
2023-06-21T03:07:48.115Z,14.07
2023-06-21T03:10:16.024Z,14.08
2023-06-21T03:12:44.644Z,14.10
2023-06-21T03:15:12.368Z,14.14
2023-06-21T03:17:40.871Z,14.16
2023-06-21T03:20:15.425Z,14.15
2023-06-21T03:22:43.114Z,14.23
2023-06-21T03:25:11.560Z,14.29
2023-06-21T03:27:38.866Z,14.29
2023-06-21T03:30:08.023Z,14.35
2023-06-21T03:32:34.923Z,14.43
2023-06-21T03:35:01.879Z,14.50
2023-06-21T03:37:29.076Z,14.50
2023-06-21T03:39:55.970Z,14.56
2023-06-21T03:42:22.964Z,14.62
2023-06-21T03:44:50.091Z,14.75
2023-06-21T03:47:16.981Z,14.85
2023-06-21T03:49:44.228Z,14.98
2023-06-21T03:52:11.180Z,15.16
2023-06-21T03:54:37.976Z,15.32
2023-06-21T03:57:04.992Z,15.57
2023-06-21T03:59:31.762Z,15.80
2023-06-21T04:01:58.557Z,16.03
2023-06-21T04:04:25.385Z,16.30
2023-06-21T04:06:53.244Z,16.52
2023-06-21T04:09:21.382Z,16.80
2023-06-21T04:11:48.128Z,17.04
2023-06-21T04:14:16.669Z,17.32
2023-06-21T04:16:44.392Z,17.60
2023-06-21T04:19:11.077Z,17.93
2023-06-21T04:21:38.029Z,18.20
2023-06-21T04:24:05.272Z,18.58
2023-06-21T04:26:32.309Z,18.81
2023-06-21T04:29:02.398Z,19.09
2023-06-21T04:31:30.185Z,19.32
2023-06-21T04:33:57.186Z,19.51
2023-06-21T04:36:26.013Z,19.88
2023-06-21T04:38:52.823Z,20.21
2023-06-21T04:41:20.526Z,20.48
2023-06-21T04:43:47.380Z,20.78
2023-06-21T04:46:15.224Z,21.00
2023-06-21T04:48:42.512Z,21.18
2023-06-21T04:51:09.307Z,21.38
2023-06-21T04:53:36.164Z,21.55
2023-06-21T04:56:03.078Z,21.83
2023-06-21T04:58:36.767Z,22.05
2023-06-21T05:01:04.016Z,22.30
2023-06-21T05:03:34.188Z,22.54
2023-06-21T05:06:02.221Z,22.73
2023-06-21T05:08:29.548Z,22.88
2023-06-21T05:10:56.850Z,23.07
2023-06-21T05:13:23.697Z,23.29
2023-06-21T05:15:50.652Z,23.44
2023-06-21T05:18:17.889Z,23.52
2023-06-21T05:20:44.611Z,23.67
2023-06-21T05:23:18.752Z,23.89
2023-06-21T05:25:45.649Z,24.05
2023-06-21T05:28:12.422Z,24.24
2023-06-21T05:30:39.512Z,24.36
2023-06-21T05:33:06.599Z,24.53
2023-06-21T05:35:36.445Z,24.69
2023-06-21T05:38:03.470Z,24.86
2023-06-21T05:40:30.554Z,25.06
2023-06-21T05:43:02.463Z,25.16
2023-06-21T05:45:30.391Z,25.36
2023-06-21T05:48:01.677Z,25.55
2023-06-21T05:50:31.761Z,25.74
2023-06-21T05:52:59.666Z,25.82
2023-06-21T05:55:26.787Z,25.97
2023-06-21T05:57:53.536Z,26.14
2023-06-21T06:00:20.524Z,26.25
2023-06-21T06:02:47.412Z,26.49
2023-06-21T06:05:15.441Z,26.71
2023-06-21T06:07:42.390Z,26.86
2023-06-21T06:10:10.080Z,27.10
2023-06-21T06:12:36.977Z,27.00
2023-06-21T06:15:04.341Z,27.19
2023-06-21T06:17:31.516Z,27.36
2023-06-21T06:19:58.782Z,27.31
2023-06-21T06:22:26.286Z,27.44
2023-06-21T06:24:53.715Z,27.62
2023-06-21T06:27:20.485Z,27.77
2023-06-21T06:29:47.256Z,27.77
2023-06-21T06:32:14.206Z,27.86
2023-06-21T06:34:41.187Z,28.12
2023-06-21T06:37:14.511Z,28.24
2023-06-21T06:39:42.760Z,28.41
2023-06-21T06:42:11.657Z,28.59
2023-06-21T06:44:38.823Z,28.77
2023-06-21T06:47:07.770Z,29.03
2023-06-21T06:49:35.038Z,29.15
2023-06-21T06:52:01.771Z,29.25
2023-06-21T06:54:28.653Z,29.38
2023-06-21T06:56:55.592Z,29.55
2023-06-21T06:59:23.608Z,29.83
2023-06-21T07:01:51.226Z,30.21
2023-06-21T07:04:18.458Z,30.61
2023-06-21T07:06:45.476Z,30.93
2023-06-21T07:09:12.333Z,31.19
2023-06-21T07:11:39.486Z,31.34
2023-06-21T07:14:06.115Z,31.37
2023-06-21T07:16:36.736Z,31.59
2023-06-21T07:19:06.686Z,31.57
2023-06-21T07:21:33.874Z,31.74
2023-06-21T07:24:00.664Z,31.89
2023-06-21T07:26:27.685Z,32.03
2023-06-21T07:28:54.444Z,32.17
2023-06-21T07:31:21.386Z,32.22
2023-06-21T07:33:50.711Z,32.49
2023-06-21T07:36:26.086Z,32.73
2023-06-21T07:38:53.535Z,32.89
2023-06-21T07:41:20.593Z,33.16
2023-06-21T07:43:47.378Z,33.33
2023-06-21T07:46:16.016Z,33.43
2023-06-21T07:48:43.495Z,33.55
2023-06-21T07:51:11.347Z,33.58
2023-06-21T07:53:38.268Z,33.36
2023-06-21T07:56:05.803Z,33.25
2023-06-21T07:58:32.656Z,33.40
2023-06-21T08:00:59.420Z,33.63
2023-06-21T08:03:26.415Z,33.62
2023-06-21T08:05:53.110Z,33.59
2023-06-21T08:08:21.358Z,33.53
2023-06-21T08:10:48.205Z,33.47
2023-06-21T08:13:18.415Z,33.45
2023-06-21T08:15:45.728Z,33.36
2023-06-21T08:18:12.605Z,33.34
2023-06-21T08:20:41.914Z,33.35
2023-06-21T08:23:09.894Z,33.30
2023-06-21T08:25:37.330Z,33.51
2023-06-21T08:28:04.995Z,33.67
2023-06-21T08:30:32.127Z,33.75
2023-06-21T08:32:58.987Z,33.78
2023-06-21T08:35:26.050Z,33.76
2023-06-21T08:37:57.622Z,33.64
2023-06-21T08:40:34.787Z,33.65
2023-06-21T08:43:02.356Z,33.57
2023-06-21T08:45:29.606Z,33.85
2023-06-21T08:48:02.447Z,34.04
2023-06-21T08:50:31.039Z,33.75
2023-06-21T08:53:04.109Z,33.76
2023-06-21T08:55:33.198Z,33.77
2023-06-21T08:58:16.161Z,33.90
2023-06-21T09:00:51.378Z,33.96
2023-06-21T09:04:00.361Z,34.31
2023-06-21T09:06:28.440Z,33.73
2023-06-21T09:08:55.609Z,33.25
2023-06-21T09:11:24.052Z,33.02
2023-06-21T09:13:54.549Z,32.62
2023-06-21T09:16:21.752Z,32.73
2023-06-21T09:18:49.124Z,32.86
2023-06-21T09:21:16.971Z,33.00
2023-06-21T09:23:45.989Z,33.21
2023-06-21T09:26:13.113Z,33.27
2023-06-21T09:28:40.297Z,33.39
2023-06-21T09:31:07.298Z,33.41
2023-06-21T09:33:34.352Z,33.58
2023-06-21T09:36:01.450Z,33.72
2023-06-21T09:38:32.984Z,33.83
2023-06-21T09:41:02.725Z,33.70
2023-06-21T09:43:29.819Z,33.72
2023-06-21T09:45:59.841Z,33.77
2023-06-21T09:48:27.191Z,33.73
2023-06-21T09:50:57.342Z,33.42
2023-06-21T09:53:25.696Z,33.25
2023-06-21T09:55:52.699Z,33.42
2023-06-21T09:58:19.758Z,33.59
2023-06-21T10:00:46.571Z,33.63
2023-06-21T10:03:14.074Z,33.73
2023-06-21T10:05:57.227Z,33.92
2023-06-21T10:08:33.306Z,33.61
2023-06-21T10:11:01.440Z,33.32
2023-06-21T10:13:29.740Z,33.11
2023-06-21T10:15:57.631Z,33.24
2023-06-21T10:18:25.235Z,32.97
2023-06-21T10:20:58.484Z,32.92
2023-06-21T10:23:32.895Z,33.13
2023-06-21T10:26:10.141Z,33.09
2023-06-21T10:28:38.933Z,32.59
2023-06-21T10:31:05.966Z,32.21
2023-06-21T10:33:35.591Z,32.39
2023-06-21T10:36:04.415Z,32.32
2023-06-21T10:38:45.840Z,32.52
2023-06-21T10:41:15.505Z,32.73
2023-06-21T10:43:44.452Z,32.81
2023-06-21T10:46:12.751Z,32.96
2023-06-21T10:48:41.522Z,32.90
2023-06-21T10:51:11.388Z,32.90
2023-06-21T10:53:40.247Z,32.93
2023-06-21T10:56:07.123Z,33.02
2023-06-21T10:58:34.148Z,33.31
2023-06-21T11:01:01.412Z,33.60
2023-06-21T11:03:28.864Z,33.70
2023-06-21T11:05:57.719Z,33.81
2023-06-21T11:08:32.080Z,34.18
2023-06-21T11:11:08.182Z,34.40
2023-06-21T11:13:37.697Z,34.39
2023-06-21T11:16:30.892Z,34.46
2023-06-21T11:19:00.204Z,34.59
2023-06-21T11:21:46.619Z,34.68
2023-06-21T11:24:17.040Z,34.36
2023-06-21T11:26:57.223Z,34.06
2023-06-21T11:29:26.023Z,34.09
2023-06-21T11:32:08.583Z,33.77
2023-06-21T11:34:35.532Z,33.45
2023-06-21T11:37:20.721Z,33.53
2023-06-21T11:40:00.112Z,33.71
2023-06-21T11:42:29.222Z,33.28
2023-06-21T11:44:56.999Z,32.87
2023-06-21T11:47:23.899Z,32.97
2023-06-21T11:49:59.074Z,32.93
2023-06-21T11:52:34.617Z,33.14
2023-06-21T11:55:14.382Z,33.20
2023-06-21T11:57:45.526Z,33.43
2023-06-21T12:00:13.690Z,33.56
2023-06-21T12:02:40.824Z,33.85
2023-06-21T12:05:08.180Z,34.04
2023-06-21T12:07:40.498Z,34.24
2023-06-21T12:10:08.045Z,34.39
2023-06-21T12:12:35.267Z,34.52
2023-06-21T12:15:02.295Z,34.65
2023-06-21T12:17:29.466Z,34.70
2023-06-21T12:20:03.093Z,34.37
2023-06-21T12:22:29.862Z,34.05
2023-06-21T12:24:56.830Z,33.67
2023-06-21T12:27:23.538Z,33.21
2023-06-21T12:29:53.171Z,33.10
2023-06-21T12:32:21.903Z,33.15
2023-06-21T12:34:49.653Z,33.14
2023-06-21T12:37:20.664Z,33.16
2023-06-21T12:39:54.880Z,33.16
2023-06-21T12:42:22.197Z,33.05
2023-06-21T12:44:49.285Z,32.93
2023-06-21T12:47:16.452Z,32.76
2023-06-21T12:49:48.552Z,32.40
2023-06-21T12:52:15.471Z,32.36
2023-06-21T12:54:58.038Z,31.94
2023-06-21T12:57:33.090Z,31.73
2023-06-21T13:00:00.075Z,31.80
2023-06-21T13:02:29.831Z,32.04
2023-06-21T13:04:57.577Z,32.11
2023-06-21T13:07:24.595Z,32.27
2023-06-21T13:09:51.850Z,32.67
2023-06-21T13:12:18.855Z,32.78
2023-06-21T13:14:45.679Z,32.79
2023-06-21T13:17:12.542Z,32.74
2023-06-21T13:19:40.132Z,32.76
2023-06-21T13:22:09.960Z,32.79
2023-06-21T13:24:36.722Z,32.90
2023-06-21T13:27:03.610Z,33.02
2023-06-21T13:29:31.432Z,33.11
2023-06-21T13:31:58.752Z,33.02
2023-06-21T13:34:25.858Z,33.12
2023-06-21T13:36:53.105Z,33.34
2023-06-21T13:39:20.124Z,33.36
2023-06-21T13:41:46.947Z,33.64
2023-06-21T13:44:14.142Z,33.58
2023-06-21T13:46:41.178Z,33.22
2023-06-21T13:49:08.037Z,33.05
2023-06-21T13:51:36.490Z,32.86
2023-06-21T13:54:03.432Z,32.96
2023-06-21T13:56:30.845Z,33.21
2023-06-21T13:58:57.908Z,33.55
2023-06-21T14:01:25.011Z,33.66
2023-06-21T14:03:53.219Z,33.59
2023-06-21T14:06:20.736Z,33.54
2023-06-21T14:08:48.319Z,33.61
2023-06-21T14:11:15.466Z,33.45
2023-06-21T14:13:42.611Z,33.33
2023-06-21T14:16:09.820Z,33.37
2023-06-21T14:18:47.067Z,33.46
2023-06-21T14:21:17.468Z,33.44
2023-06-21T14:23:44.902Z,33.10
2023-06-21T14:26:12.687Z,32.92
2023-06-21T14:28:42.454Z,32.78
2023-06-21T14:31:09.874Z,32.83
2023-06-21T14:33:37.286Z,32.47
2023-06-21T14:36:04.432Z,32.32
2023-06-21T14:38:32.263Z,32.50
2023-06-21T14:41:01.286Z,32.44
2023-06-21T14:43:28.294Z,32.54
2023-06-21T14:45:57.896Z,32.62
2023-06-21T14:48:25.106Z,32.62
2023-06-21T14:50:52.302Z,32.76
2023-06-21T14:53:19.631Z,32.90
2023-06-21T14:55:47.040Z,33.01
2023-06-21T14:58:14.786Z,32.95
2023-06-21T15:00:42.109Z,32.90
2023-06-21T15:03:09.812Z,32.57
2023-06-21T15:05:37.593Z,32.57
2023-06-21T15:08:05.257Z,32.53
2023-06-21T15:10:33.666Z,32.28
2023-06-21T15:13:02.593Z,32.35
2023-06-21T15:15:30.502Z,32.42
2023-06-21T15:17:59.989Z,32.27
2023-06-21T15:20:26.951Z,32.21
2023-06-21T15:22:56.717Z,32.12
2023-06-21T15:25:24.865Z,32.13
2023-06-21T15:27:52.602Z,32.04
2023-06-21T15:30:19.783Z,31.92
2023-06-21T15:32:46.933Z,31.72
2023-06-21T15:35:16.441Z,31.26
2023-06-21T15:37:43.374Z,30.99
2023-06-21T15:40:10.649Z,30.82
2023-06-21T15:42:40.287Z,30.69
2023-06-21T15:45:08.605Z,30.48
2023-06-21T15:47:35.765Z,30.23
2023-06-21T15:50:10.106Z,30.11
2023-06-21T15:52:38.780Z,29.87
2023-06-21T15:55:06.460Z,29.70
2023-06-21T15:57:34.451Z,29.51
2023-06-21T16:00:02.934Z,29.40
2023-06-21T16:02:30.299Z,29.24
2023-06-21T16:04:57.289Z,29.00
2023-06-21T16:07:24.121Z,28.78
2023-06-21T16:09:51.484Z,28.62
2023-06-21T16:12:18.643Z,28.48
2023-06-21T16:14:45.600Z,28.38
2023-06-21T16:17:14.816Z,28.16
2023-06-21T16:19:41.693Z,27.96
2023-06-21T16:22:08.747Z,27.73
2023-06-21T16:24:35.864Z,27.55
2023-06-21T16:27:03.062Z,27.52
2023-06-21T16:29:29.927Z,27.35
2023-06-21T16:31:56.855Z,27.12
2023-06-21T16:34:24.035Z,27.12
2023-06-21T16:36:51.119Z,26.92
2023-06-21T16:39:18.476Z,26.82
2023-06-21T16:41:45.445Z,26.77
2023-06-21T16:44:12.238Z,26.62
2023-06-21T16:46:41.500Z,26.45
2023-06-21T16:49:10.882Z,26.38
2023-06-21T16:51:37.843Z,26.30
2023-06-21T16:54:05.164Z,26.29
2023-06-21T16:56:31.896Z,26.26
2023-06-21T16:58:59.030Z,26.13
2023-06-21T17:01:26.060Z,26.11
2023-06-21T17:03:56.148Z,25.95
2023-06-21T17:06:25.602Z,25.95
2023-06-21T17:08:55.783Z,25.72
2023-06-21T17:11:24.193Z,25.75
2023-06-21T17:13:53.994Z,25.57
2023-06-21T17:16:21.623Z,25.50
2023-06-21T17:18:49.752Z,25.48
2023-06-21T17:21:16.958Z,25.34
2023-06-21T17:23:43.933Z,25.23
2023-06-21T17:26:10.905Z,25.14
2023-06-21T17:28:38.280Z,25.03
2023-06-21T17:31:05.402Z,24.94
2023-06-21T17:33:33.335Z,24.78
2023-06-21T17:36:00.273Z,24.71
2023-06-21T17:38:27.662Z,24.76
2023-06-21T17:40:54.429Z,24.60
2023-06-21T17:43:21.301Z,24.43
2023-06-21T17:45:48.441Z,24.30
2023-06-21T17:48:15.382Z,24.21
2023-06-21T17:50:42.381Z,24.09
2023-06-21T17:53:09.390Z,23.94
2023-06-21T17:55:36.493Z,23.83
2023-06-21T17:58:04.420Z,23.77
2023-06-21T18:00:32.174Z,23.63
2023-06-21T18:02:59.262Z,23.63
2023-06-21T18:05:27.034Z,23.55
2023-06-21T18:07:54.443Z,23.33
2023-06-21T18:10:21.479Z,23.28
2023-06-21T18:12:48.455Z,23.22
2023-06-21T18:15:15.352Z,23.11
2023-06-21T18:17:42.294Z,23.10
2023-06-21T18:20:10.152Z,23.03
2023-06-21T18:22:43.005Z,22.84
2023-06-21T18:25:10.792Z,22.81
2023-06-21T18:27:38.182Z,22.83
2023-06-21T18:30:08.799Z,22.76
2023-06-21T18:32:40.636Z,22.68
2023-06-21T18:35:10.159Z,22.58
2023-06-21T18:37:39.598Z,22.56
2023-06-21T18:40:08.427Z,22.50
2023-06-21T18:42:36.007Z,22.55
2023-06-21T18:45:02.918Z,22.56
2023-06-21T18:47:30.297Z,22.45
2023-06-21T18:50:00.306Z,22.42
2023-06-21T18:52:27.590Z,22.38
2023-06-21T18:54:57.726Z,22.31
2023-06-21T18:57:24.883Z,22.24
2023-06-21T18:59:51.833Z,22.18
2023-06-21T19:02:19.250Z,22.21
2023-06-21T19:04:46.497Z,22.16
2023-06-21T19:07:15.841Z,22.01
2023-06-21T19:09:43.826Z,22.07
2023-06-21T19:12:10.933Z,21.97
2023-06-21T19:14:38.346Z,21.78
2023-06-21T19:17:07.679Z,21.74
2023-06-21T19:19:34.627Z,21.74
2023-06-21T19:22:01.922Z,21.67
2023-06-21T19:24:29.197Z,21.59
2023-06-21T19:26:56.199Z,21.46
2023-06-21T19:29:23.166Z,21.48
2023-06-21T19:31:50.669Z,21.45
2023-06-21T19:34:19.302Z,21.39
2023-06-21T19:36:46.358Z,21.31
2023-06-21T19:39:13.313Z,21.25
2023-06-21T19:41:41.306Z,21.05
2023-06-21T19:44:08.547Z,21.02
2023-06-21T19:46:35.980Z,21.03
2023-06-21T19:49:03.067Z,20.92
2023-06-21T19:51:35.056Z,20.93
2023-06-21T19:54:02.591Z,20.81
2023-06-21T19:56:29.880Z,20.78
2023-06-21T19:58:58.219Z,20.69
2023-06-21T20:01:25.761Z,20.71
2023-06-21T20:03:55.885Z,20.67
2023-06-21T20:06:22.880Z,20.50
2023-06-21T20:08:49.836Z,20.45
2023-06-21T20:11:19.774Z,20.55
2023-06-21T20:13:47.442Z,20.46
2023-06-21T20:16:14.432Z,20.46
2023-06-21T20:18:41.861Z,20.36
2023-06-21T20:21:10.880Z,20.31
2023-06-21T20:23:38.139Z,20.24
2023-06-21T20:26:05.106Z,20.16
2023-06-21T20:40:44.830Z,20.76
2023-06-21T20:43:20.039Z,20.61
2023-06-21T20:45:58.306Z,20.40
2023-06-21T20:48:26.149Z,20.23
2023-06-21T20:50:53.770Z,20.10
2023-06-21T20:53:20.445Z,20.02
2023-06-21T20:55:48.852Z,19.87
2023-06-21T20:58:28.810Z,19.84
2023-06-21T21:00:59.138Z,19.79
2023-06-21T21:03:28.201Z,19.83
2023-06-21T21:05:56.228Z,19.71
2023-06-21T21:08:25.987Z,19.64
2023-06-21T21:10:56.656Z,19.58
2023-06-21T21:13:23.596Z,19.56
2023-06-21T21:15:51.520Z,19.51
2023-06-21T21:18:18.798Z,19.47
2023-06-21T21:20:48.708Z,19.45
2023-06-21T21:23:16.084Z,19.38
2023-06-21T21:25:43.976Z,19.33
2023-06-21T21:28:17.865Z,19.35
2023-06-21T21:30:47.549Z,19.31
2023-06-21T21:33:15.015Z,19.28
2023-06-21T21:35:45.304Z,19.21
2023-06-21T21:38:12.744Z,19.15
2023-06-21T21:40:39.955Z,19.14
2023-06-21T21:43:06.978Z,19.08
2023-06-21T21:45:36.170Z,18.97
2023-06-21T21:48:04.220Z,18.97
2023-06-21T21:50:31.938Z,18.97
2023-06-21T21:52:58.812Z,18.96
2023-06-21T21:55:30.655Z,18.91
2023-06-21T21:58:00.762Z,18.91
2023-06-21T22:00:28.386Z,18.90
2023-06-21T22:02:55.678Z,18.87
2023-06-21T22:05:23.185Z,18.88
2023-06-21T22:07:50.950Z,18.79
2023-06-21T22:10:36.185Z,18.77
2023-06-21T22:13:06.975Z,18.76
2023-06-21T22:15:34.175Z,18.73
2023-06-21T22:18:02.766Z,18.75
2023-06-21T22:20:31.084Z,18.78
2023-06-21T22:22:58.857Z,18.77
2023-06-21T22:25:26.354Z,18.77
2023-06-21T22:27:53.834Z,18.71
2023-06-21T22:30:20.972Z,18.69
2023-06-21T22:32:47.921Z,18.71
2023-06-21T22:35:15.073Z,18.60
2023-06-21T22:37:42.296Z,18.57
2023-06-21T22:40:10.796Z,18.53
2023-06-21T22:42:40.779Z,18.48
2023-06-21T22:45:08.487Z,18.49
2023-06-21T22:47:38.469Z,18.45
2023-06-21T22:50:10.260Z,18.37
2023-06-21T22:52:37.495Z,18.36
2023-06-21T22:55:05.445Z,18.36
2023-06-21T22:57:32.567Z,18.36
2023-06-21T23:00:00.681Z,18.25
2023-06-21T23:02:28.191Z,18.23
2023-06-21T23:04:55.625Z,18.24
2023-06-21T23:07:22.609Z,18.25
2023-06-21T23:09:49.501Z,18.20
2023-06-21T23:12:17.128Z,18.24
2023-06-21T23:14:44.093Z,18.13
2023-06-21T23:17:12.731Z,18.08
2023-06-21T23:19:48.850Z,18.08
2023-06-21T23:22:19.949Z,18.05
2023-06-21T23:24:52.263Z,18.05
2023-06-21T23:27:19.639Z,18.02
2023-06-21T23:29:47.757Z,17.98
2023-06-21T23:32:26.040Z,17.94
2023-06-21T23:34:53.346Z,17.95
2023-06-21T23:37:22.157Z,17.92
2023-06-21T23:39:55.283Z,17.92
2023-06-21T23:42:26.012Z,17.92
2023-06-21T23:44:54.630Z,17.82
2023-06-21T23:47:21.859Z,17.81
2023-06-21T23:49:49.714Z,17.85
2023-06-21T23:52:17.334Z,17.87
2023-06-21T23:54:44.545Z,17.78
2023-06-21T23:57:14.795Z,17.73
2023-06-21T23:59:42.140Z,17.74
